createdAt,value
2023-05-19T00:01:25.212Z,4.63
2023-05-19T00:03:59.196Z,4.10
2023-05-19T00:06:29.396Z,4.53
2023-05-19T00:09:04.817Z,5.07
2023-05-19T00:11:32.277Z,4.93
2023-05-19T00:14:00.824Z,5.00
2023-05-19T00:16:29.742Z,4.57
2023-05-19T00:19:00.895Z,4.90
2023-05-19T00:21:28.734Z,4.78
2023-05-19T00:23:56.388Z,4.75
2023-05-19T00:26:24.447Z,4.72
2023-05-19T00:28:51.504Z,4.70
2023-05-19T00:31:18.596Z,5.25
2023-05-19T00:33:45.998Z,4.75
2023-05-19T00:36:13.554Z,4.60
2023-05-19T00:38:40.719Z,4.88
2023-05-19T00:41:08.005Z,5.28
2023-05-19T00:43:35.050Z,4.88
2023-05-19T00:46:02.613Z,4.53
2023-05-19T00:48:29.785Z,5.50
2023-05-19T00:51:02.584Z,5.60
2023-05-19T00:53:30.549Z,5.45
2023-05-19T00:55:58.754Z,4.88
2023-05-19T00:58:29.391Z,5.47
2023-05-19T01:01:03.695Z,5.07
2023-05-19T01:03:36.365Z,4.78
2023-05-19T01:06:08.102Z,5.35
2023-05-19T01:08:37.727Z,4.75
2023-05-19T01:11:08.470Z,5.05
2023-05-19T01:13:37.162Z,5.15
2023-05-19T01:16:12.694Z,4.78
2023-05-19T01:19:13.239Z,5.25
2023-05-19T01:21:46.276Z,5.47
2023-05-19T01:24:51.100Z,6.10
2023-05-19T01:30:23.905Z,5.72
2023-05-19T01:32:54.823Z,5.57
2023-05-19T01:35:25.137Z,5.45
2023-05-19T01:37:56.646Z,5.50
2023-05-19T01:40:25.589Z,6.03
2023-05-19T01:42:55.589Z,5.57
2023-05-19T01:45:24.891Z,5.50
2023-05-19T01:47:58.196Z,5.75
2023-05-19T01:50:26.200Z,6.10
2023-05-19T01:52:53.929Z,6.10
2023-05-19T01:55:23.468Z,5.70
2023-05-19T01:58:41.457Z,5.22
2023-05-19T02:01:33.268Z,5.40
2023-05-19T02:04:54.754Z,5.15
2023-05-19T02:07:32.686Z,5.80
2023-05-19T02:10:10.553Z,5.88
2023-05-19T02:12:41.128Z,5.63
2023-05-19T02:15:11.857Z,5.30
2023-05-19T02:17:41.811Z,5.43
2023-05-19T02:20:10.012Z,5.40
2023-05-19T02:22:37.211Z,5.68
2023-05-19T02:25:04.694Z,5.90
2023-05-19T02:27:31.790Z,5.85
2023-05-19T02:29:58.942Z,5.57
2023-05-19T02:32:26.067Z,5.88
2023-05-19T02:34:53.448Z,5.90
2023-05-19T02:37:23.947Z,5.50
2023-05-19T02:39:51.328Z,5.75
2023-05-19T02:42:18.505Z,5.53
2023-05-19T02:44:45.602Z,6.28
2023-05-19T02:47:13.463Z,5.50
2023-05-19T02:49:41.241Z,5.32
2023-05-19T02:52:08.295Z,5.68
2023-05-19T02:54:35.594Z,5.53
2023-05-19T02:57:02.701Z,6.20
2023-05-19T02:59:29.829Z,6.20
2023-05-19T03:02:00.574Z,5.85
2023-05-19T03:04:28.366Z,6.13
2023-05-19T03:06:55.634Z,5.60
2023-05-19T03:09:22.700Z,5.90
2023-05-19T03:11:49.769Z,5.40
2023-05-19T03:14:16.796Z,6.10
2023-05-19T03:16:44.000Z,6.57
2023-05-19T03:19:11.207Z,6.25
2023-05-19T03:21:38.329Z,5.72
2023-05-19T03:24:05.793Z,5.20
2023-05-19T03:26:32.887Z,6.47
2023-05-19T03:28:59.940Z,5.82
2023-05-19T03:31:27.079Z,6.05
2023-05-19T03:33:54.087Z,6.20
2023-05-19T03:36:22.226Z,5.78
2023-05-19T03:38:49.487Z,5.72
2023-05-19T03:41:16.593Z,6.50
2023-05-19T03:43:43.698Z,6.20
2023-05-19T03:46:10.752Z,6.00
2023-05-19T03:48:37.823Z,6.40
2023-05-19T03:51:04.901Z,6.20
2023-05-19T03:53:31.948Z,6.40
2023-05-19T03:55:59.641Z,6.05
2023-05-19T03:58:27.030Z,6.22
2023-05-19T04:00:54.046Z,6.60
2023-05-19T04:03:21.372Z,6.03
2023-05-19T04:05:48.551Z,5.97
2023-05-19T04:08:15.903Z,5.93
2023-05-19T04:10:42.974Z,6.35
2023-05-19T04:13:10.060Z,6.53
2023-05-19T04:15:37.229Z,6.70
2023-05-19T04:18:04.327Z,5.97
2023-05-19T04:20:31.612Z,6.95
2023-05-19T04:22:58.740Z,6.25
2023-05-19T04:25:25.873Z,6.53
2023-05-19T04:27:53.131Z,6.50
2023-05-19T04:30:22.801Z,6.50
2023-05-19T04:32:51.156Z,6.80
2023-05-19T04:35:18.236Z,7.60
2023-05-19T04:37:48.690Z,7.75
2023-05-19T04:40:16.136Z,9.27
2023-05-19T04:42:46.034Z,8.88
2023-05-19T04:45:14.290Z,7.93
2023-05-19T04:47:42.083Z,7.78
2023-05-19T04:50:11.245Z,7.00
2023-05-19T04:52:38.312Z,6.38
2023-05-19T04:55:05.841Z,6.28
2023-05-19T04:57:32.851Z,7.10
2023-05-19T05:00:02.720Z,6.53
2023-05-19T05:02:29.834Z,6.18
2023-05-19T05:04:56.927Z,6.88
2023-05-19T05:07:24.125Z,6.53
2023-05-19T05:09:51.412Z,6.70
2023-05-19T05:12:19.411Z,7.25
2023-05-19T05:14:46.772Z,6.88
2023-05-19T05:17:14.295Z,6.95
2023-05-19T05:19:41.632Z,6.80
2023-05-19T05:22:08.972Z,7.07
2023-05-19T05:24:36.582Z,6.32
2023-05-19T05:27:04.141Z,6.97
2023-05-19T05:29:31.272Z,6.55
2023-05-19T05:31:58.370Z,6.95
2023-05-19T05:34:25.550Z,6.95
2023-05-19T05:36:52.647Z,6.68
2023-05-19T05:39:20.052Z,6.55
2023-05-19T05:41:47.448Z,6.55
2023-05-19T05:44:14.507Z,6.20
2023-05-19T05:46:41.957Z,7.03
2023-05-19T05:49:09.313Z,6.13
2023-05-19T05:51:36.784Z,6.45
2023-05-19T05:54:06.913Z,5.93
2023-05-19T05:56:34.485Z,5.60
2023-05-19T05:59:02.353Z,6.50
2023-05-19T06:01:32.174Z,5.57
2023-05-19T06:04:00.760Z,5.78
2023-05-19T06:06:27.990Z,5.47
2023-05-19T06:08:55.050Z,6.30
2023-05-19T06:11:22.120Z,5.68
2023-05-19T06:13:49.275Z,5.57
2023-05-19T06:16:16.711Z,6.25
2023-05-19T06:18:43.850Z,6.05
2023-05-19T06:21:13.634Z,5.82
2023-05-19T06:23:41.190Z,5.47
2023-05-19T06:26:08.310Z,5.63
2023-05-19T06:28:35.415Z,5.80
2023-05-19T06:31:02.522Z,5.90
2023-05-19T06:33:29.805Z,5.60
2023-05-19T06:35:56.862Z,5.47
2023-05-19T06:38:24.010Z,5.68
2023-05-19T06:40:51.081Z,6.18
2023-05-19T06:43:18.192Z,5.80
2023-05-19T06:45:45.224Z,5.53
2023-05-19T06:48:12.294Z,5.88
2023-05-19T06:50:39.361Z,5.97
2023-05-19T06:53:06.496Z,5.53
2023-05-19T06:55:34.449Z,5.40
2023-05-19T06:58:04.182Z,5.75
2023-05-19T07:00:31.312Z,5.85
2023-05-19T07:02:58.498Z,5.38
2023-05-19T07:05:25.815Z,5.65
2023-05-19T07:07:52.856Z,6.38
2023-05-19T07:10:21.593Z,5.88
2023-05-19T07:12:48.628Z,6.22
2023-05-19T07:15:15.806Z,5.82
2023-05-19T07:17:42.895Z,5.40
2023-05-19T07:20:10.553Z,5.70
2023-05-19T07:22:38.796Z,5.38
2023-05-19T07:25:07.373Z,6.03
2023-05-19T07:27:34.520Z,5.47
2023-05-19T07:30:01.611Z,5.13
2023-05-19T07:32:28.771Z,5.32
2023-05-19T07:34:55.993Z,5.47
2023-05-19T07:37:23.055Z,5.45
2023-05-19T07:39:50.093Z,5.72
2023-05-19T07:42:17.180Z,5.40
2023-05-19T07:44:44.294Z,5.43
2023-05-19T07:47:11.296Z,5.15
2023-05-19T07:49:38.395Z,4.93
2023-05-19T07:52:05.658Z,4.72
2023-05-19T07:54:32.699Z,5.15
2023-05-19T07:56:59.698Z,4.38
2023-05-19T07:59:26.746Z,4.43
2023-05-19T08:01:53.847Z,4.05
2023-05-19T08:04:21.156Z,4.40
2023-05-19T08:06:48.195Z,4.20
2023-05-19T08:09:15.203Z,3.53
2023-05-19T08:11:42.259Z,3.95
2023-05-19T08:14:09.370Z,3.83
2023-05-19T08:16:36.529Z,3.80
2023-05-19T08:19:05.609Z,3.92
2023-05-19T08:21:35.737Z,4.43
2023-05-19T08:24:03.076Z,4.40
2023-05-19T08:26:30.237Z,4.40
2023-05-19T08:28:57.285Z,4.50
2023-05-19T08:31:25.232Z,3.78
2023-05-19T08:33:52.428Z,3.92
2023-05-19T08:36:19.796Z,3.58
2023-05-19T08:38:47.025Z,4.20
2023-05-19T08:41:14.148Z,3.60
2023-05-19T08:43:41.186Z,3.50
2023-05-19T08:46:10.633Z,3.22
2023-05-19T08:48:42.271Z,3.00
2023-05-19T08:51:23.246Z,3.00
2023-05-19T08:53:57.845Z,3.13
2023-05-19T08:56:26.867Z,3.20
2023-05-19T08:58:55.090Z,3.67
2023-05-19T09:01:22.787Z,3.88
2023-05-19T09:03:50.506Z,3.58
2023-05-19T09:06:17.821Z,4.70
2023-05-19T09:08:45.097Z,3.75
2023-05-19T09:11:12.233Z,4.30
2023-05-19T09:13:39.479Z,3.90
2023-05-19T09:16:07.111Z,3.45
2023-05-19T09:18:34.286Z,3.00
2023-05-19T09:21:03.378Z,3.03
2023-05-19T09:23:36.472Z,2.85
2023-05-19T09:26:08.313Z,3.03
2023-05-19T09:28:36.768Z,2.92
2023-05-19T09:31:07.946Z,3.55
2023-05-19T09:33:39.513Z,3.83
2023-05-19T09:36:08.648Z,2.60
2023-05-19T09:38:36.638Z,2.55
2023-05-19T09:41:04.786Z,2.00
2023-05-19T09:43:35.809Z,2.47
2023-05-19T09:46:07.952Z,2.30
2023-05-19T09:48:36.827Z,2.35
2023-05-19T09:51:08.291Z,2.60
2023-05-19T09:53:35.637Z,1.90
2023-05-19T09:56:03.831Z,2.05
2023-05-19T09:58:35.659Z,2.10
2023-05-19T10:01:04.498Z,2.83
2023-05-19T10:03:33.171Z,2.20
2023-05-19T10:06:02.267Z,2.80
2023-05-19T10:08:30.917Z,2.40
2023-05-19T10:10:58.610Z,1.80
2023-05-19T10:13:26.151Z,1.77
2023-05-19T10:15:58.623Z,2.17
2023-05-19T10:18:27.037Z,2.13
2023-05-19T10:20:54.586Z,1.80
2023-05-19T10:23:22.636Z,1.88
2023-05-19T10:25:52.695Z,1.80
2023-05-19T10:28:25.658Z,1.73
2023-05-19T10:30:56.794Z,2.00
2023-05-19T10:33:39.145Z,1.67
2023-05-19T10:36:14.916Z,1.70
2023-05-19T10:38:48.857Z,1.85
2023-05-19T10:41:28.752Z,2.08
2023-05-19T10:44:12.880Z,2.88
2023-05-19T10:46:43.484Z,2.55
2023-05-19T10:49:10.754Z,2.60
2023-05-19T10:51:38.090Z,3.55
2023-05-19T10:54:14.498Z,2.38
2023-05-19T10:56:45.967Z,2.00
2023-05-19T10:59:33.108Z,1.80
2023-05-19T11:02:07.983Z,1.88
2023-05-19T11:04:51.811Z,2.15
2023-05-19T11:09:52.120Z,1.98
2023-05-19T11:12:24.694Z,2.00
2023-05-19T11:14:55.782Z,1.67
2023-05-19T11:17:25.759Z,2.00
2023-05-19T11:19:55.410Z,2.13
2023-05-19T11:22:26.206Z,2.10
2023-05-19T11:24:56.694Z,2.05
2023-05-19T11:27:35.165Z,1.73
2023-05-19T11:30:14.620Z,1.38
2023-05-19T11:32:45.011Z,1.95
2023-05-19T11:35:12.685Z,1.75
2023-05-19T11:37:41.688Z,2.13
2023-05-19T11:40:09.378Z,2.10
2023-05-19T11:42:37.265Z,1.73
2023-05-19T11:45:05.290Z,2.10
2023-05-19T11:47:45.975Z,1.83
2023-05-19T11:50:23.094Z,1.75
2023-05-19T11:52:53.832Z,1.80
2023-05-19T11:55:25.106Z,1.80
2023-05-19T12:00:31.418Z,1.65
2023-05-19T12:02:58.660Z,2.30
2023-05-19T12:05:27.295Z,2.33
2023-05-19T12:07:54.485Z,4.68
2023-05-19T12:10:30.439Z,2.08
2023-05-19T12:13:00.991Z,1.70
2023-05-19T12:15:28.185Z,1.58
2023-05-19T12:18:01.061Z,1.95
2023-05-19T12:20:32.074Z,1.85
2023-05-19T12:23:00.323Z,1.65
2023-05-19T12:25:28.736Z,1.63
2023-05-19T12:28:01.098Z,1.80
2023-05-19T12:30:29.375Z,1.58
2023-05-19T12:32:58.011Z,1.60
2023-05-19T12:35:29.995Z,1.73
2023-05-19T12:37:57.929Z,2.20
2023-05-19T12:40:26.016Z,1.83
2023-05-19T12:42:59.357Z,1.65
2023-05-19T12:45:28.709Z,1.63
2023-05-19T12:47:56.444Z,1.92
2023-05-19T12:50:34.523Z,1.60
2023-05-19T12:53:02.208Z,1.83
2023-05-19T12:55:30.068Z,1.50
2023-05-19T12:57:58.359Z,1.58
2023-05-19T13:00:28.514Z,2.20
2023-05-19T13:03:05.390Z,1.50
2023-05-19T13:05:36.924Z,5.40
2023-05-19T13:08:12.407Z,1.67
2023-05-19T13:10:42.027Z,1.60
2023-05-19T13:13:09.706Z,3.83
2023-05-19T13:15:44.627Z,1.65
2023-05-19T13:18:13.135Z,1.70
2023-05-19T13:20:42.241Z,1.65
2023-05-19T13:23:13.489Z,1.95
2023-05-19T13:25:41.640Z,1.58
2023-05-19T13:28:09.598Z,1.55
2023-05-19T13:30:39.373Z,1.65
2023-05-19T13:33:06.994Z,1.50
2023-05-19T13:35:37.645Z,2.30
2023-05-19T13:38:12.130Z,2.38
2023-05-19T13:40:40.147Z,1.52
2023-05-19T13:43:08.922Z,2.53
2023-05-19T13:45:36.251Z,1.80
2023-05-19T13:48:03.524Z,1.80
2023-05-19T13:50:30.800Z,1.65
2023-05-19T13:52:57.909Z,1.67
2023-05-19T13:55:26.463Z,2.78
2023-05-19T13:57:53.788Z,2.35
2023-05-19T14:00:21.574Z,1.67
2023-05-19T14:02:48.745Z,1.80
2023-05-19T14:05:15.970Z,1.63
2023-05-19T14:07:43.189Z,1.75
2023-05-19T14:10:10.705Z,1.70
2023-05-19T14:12:55.106Z,1.63
2023-05-19T14:15:24.836Z,1.70
2023-05-19T14:17:53.274Z,1.65
2023-05-19T14:20:20.458Z,1.90
2023-05-19T14:22:47.606Z,1.65
2023-05-19T14:25:14.706Z,2.03
2023-05-19T14:27:41.789Z,1.67
2023-05-19T14:30:09.315Z,1.60
2023-05-19T14:32:36.437Z,1.83
2023-05-19T14:35:04.147Z,1.63
2023-05-19T14:37:32.488Z,1.63
2023-05-19T14:39:59.936Z,1.73
2023-05-19T14:42:27.046Z,1.75
2023-05-19T14:44:54.116Z,1.60
2023-05-19T14:47:21.203Z,1.88
2023-05-19T14:49:48.385Z,1.75
2023-05-19T14:52:15.453Z,1.50
2023-05-19T14:54:42.505Z,1.60
2023-05-19T14:57:09.580Z,1.60
2023-05-19T14:59:39.848Z,1.92
2023-05-19T15:02:07.459Z,1.88
2023-05-19T15:04:34.586Z,4.72
2023-05-19T15:09:31.965Z,2.22
2023-05-19T15:12:01.397Z,2.15
2023-05-19T15:14:30.492Z,2.20
2023-05-19T15:16:58.499Z,2.38
2023-05-19T15:19:26.318Z,2.30
2023-05-19T15:21:53.759Z,2.40
2023-05-19T15:24:20.920Z,3.00
2023-05-19T15:26:48.158Z,1.70
2023-05-19T15:29:15.298Z,1.83
2023-05-19T15:31:42.422Z,3.70
2023-05-19T15:34:09.549Z,2.40
2023-05-19T15:36:36.771Z,1.95
2023-05-19T15:39:04.007Z,2.50
2023-05-19T15:41:31.162Z,2.85
2023-05-19T15:44:00.646Z,2.60
2023-05-19T15:46:28.642Z,2.28
2023-05-19T15:48:55.878Z,3.95
2023-05-19T15:51:22.969Z,2.92
2023-05-19T15:53:50.154Z,3.75
2023-05-19T15:56:17.556Z,3.80
2023-05-19T15:58:44.663Z,2.80
2023-05-19T16:01:12.061Z,2.67
2023-05-19T16:03:39.382Z,2.65
2023-05-19T16:06:06.748Z,2.00
2023-05-19T16:08:33.928Z,1.98
2023-05-19T16:11:01.061Z,4.80
2023-05-19T16:13:28.131Z,3.90
2023-05-19T16:15:55.239Z,3.42
2023-05-19T16:18:23.728Z,2.53
2023-05-19T16:20:51.612Z,2.85
2023-05-19T16:23:18.672Z,3.72
2023-05-19T16:25:45.840Z,2.92
2023-05-19T16:28:12.887Z,5.30
2023-05-19T16:30:39.980Z,3.20
2023-05-19T16:33:07.098Z,1.73
2023-05-19T16:35:34.315Z,1.98
2023-05-19T16:38:01.408Z,3.83
2023-05-19T16:40:30.956Z,6.43
2023-05-19T16:42:58.543Z,1.85
2023-05-19T16:45:26.628Z,1.88
2023-05-19T16:47:53.744Z,2.30
2023-05-19T16:50:20.924Z,1.70
2023-05-19T16:52:48.022Z,2.67
2023-05-19T16:55:19.847Z,3.67
2023-05-19T16:57:47.296Z,2.38
2023-05-19T17:00:15.334Z,2.20
2023-05-19T17:02:42.637Z,2.10
2023-05-19T17:05:09.946Z,2.03
2023-05-19T17:07:37.058Z,1.80
2023-05-19T17:10:04.497Z,2.20
2023-05-19T17:12:31.801Z,2.30
2023-05-19T17:14:58.946Z,2.10
2023-05-19T17:17:26.144Z,1.73
2023-05-19T17:19:53.267Z,2.10
2023-05-19T17:22:20.496Z,1.80
2023-05-19T17:24:47.551Z,1.60
2023-05-19T17:27:15.317Z,2.20
2023-05-19T17:29:42.452Z,1.88
2023-05-19T17:32:09.685Z,6.20
2023-05-19T17:34:36.821Z,4.15
2023-05-19T17:37:04.154Z,3.75
2023-05-19T17:39:31.223Z,2.15
2023-05-19T17:41:58.441Z,2.00
2023-05-19T17:44:25.629Z,2.50
2023-05-19T17:46:52.914Z,1.70
2023-05-19T17:49:20.201Z,1.92
2023-05-19T17:51:47.463Z,3.25
2023-05-19T17:54:14.811Z,4.13
2023-05-19T17:56:44.345Z,2.30
2023-05-19T17:59:11.619Z,2.20
2023-05-19T18:01:39.295Z,1.90
2023-05-19T18:04:07.222Z,1.77
2023-05-19T18:06:37.532Z,2.05
2023-05-19T18:09:09.152Z,2.17
2023-05-19T18:11:36.743Z,1.83
2023-05-19T18:14:03.824Z,2.15
2023-05-19T18:16:31.019Z,2.00
2023-05-19T18:18:58.292Z,2.20
2023-05-19T18:21:25.485Z,2.20
2023-05-19T18:23:52.626Z,2.08
2023-05-19T18:26:19.678Z,2.20
2023-05-19T18:28:46.730Z,2.50
2023-05-19T18:31:19.880Z,2.35
2023-05-19T18:33:47.530Z,2.08
2023-05-19T18:36:16.726Z,2.10
2023-05-19T18:38:43.987Z,2.28
2023-05-19T18:41:11.150Z,2.10
2023-05-19T18:43:39.097Z,2.20
2023-05-19T18:46:06.470Z,1.88
2023-05-19T18:48:33.653Z,1.90
2023-05-19T18:51:00.757Z,2.47
2023-05-19T18:53:27.806Z,1.90
2023-05-19T18:55:54.855Z,2.00
2023-05-19T18:58:22.098Z,1.75
2023-05-19T19:00:49.266Z,1.95
2023-05-19T19:03:16.361Z,2.00
2023-05-19T19:05:44.320Z,1.80
2023-05-19T19:08:11.385Z,2.40
2023-05-19T19:10:39.261Z,2.13
2023-05-19T19:13:06.672Z,2.35
2023-05-19T19:15:33.795Z,2.33
2023-05-19T19:18:00.910Z,2.10
2023-05-19T19:20:28.255Z,2.40
2023-05-19T19:22:55.407Z,1.90
2023-05-19T19:25:23.728Z,2.03
2023-05-19T19:27:51.455Z,2.50
2023-05-19T19:30:18.636Z,1.73
2023-05-19T19:32:45.767Z,2.00
2023-05-19T19:35:13.062Z,2.13
2023-05-19T19:37:40.095Z,2.50
2023-05-19T19:40:07.722Z,2.42
2023-05-19T19:42:34.873Z,2.33
2023-05-19T19:45:02.147Z,2.70
2023-05-19T19:47:29.423Z,2.60
2023-05-19T19:49:56.600Z,2.40
2023-05-19T19:52:23.870Z,2.80
2023-05-19T19:54:51.207Z,2.20
2023-05-19T19:57:18.554Z,2.40
2023-05-19T19:59:45.880Z,2.75
2023-05-19T20:02:14.363Z,2.30
2023-05-19T20:04:41.557Z,2.30
2023-05-19T20:07:08.745Z,2.38
2023-05-19T20:09:35.961Z,2.55
2023-05-19T20:12:03.007Z,2.30
2023-05-19T20:14:30.143Z,2.35
2023-05-19T20:16:57.301Z,2.35
2023-05-19T20:19:25.729Z,2.10
2023-05-19T20:21:52.892Z,2.58
2023-05-19T20:24:19.983Z,2.38
2023-05-19T20:26:47.207Z,2.13
2023-05-19T20:29:14.328Z,2.63
2023-05-19T20:31:41.413Z,1.85
2023-05-19T20:34:08.508Z,2.20
2023-05-19T20:36:35.712Z,1.92
2023-05-19T20:39:03.837Z,1.92
2023-05-19T20:41:31.481Z,1.77
2023-05-19T20:43:58.588Z,2.45
2023-05-19T20:46:25.689Z,2.17
2023-05-19T20:48:52.843Z,2.42
2023-05-19T20:51:19.934Z,2.30
2023-05-19T20:53:46.962Z,2.20
2023-05-19T20:56:14.219Z,2.20
2023-05-19T20:58:41.317Z,2.38
2023-05-19T21:01:08.467Z,2.13
2023-05-19T21:03:35.622Z,1.90
2023-05-19T21:06:03.320Z,2.08
2023-05-19T21:08:30.397Z,1.90
2023-05-19T21:10:57.580Z,1.90
2023-05-19T21:13:24.735Z,2.28
2023-05-19T21:15:51.756Z,2.10
2023-05-19T21:18:18.812Z,2.38
2023-05-19T21:20:46.001Z,2.38
2023-05-19T21:23:13.128Z,2.13
2023-05-19T21:25:40.212Z,2.25
2023-05-19T21:28:07.291Z,2.00
2023-05-19T21:30:34.631Z,2.45
2023-05-19T21:33:01.867Z,2.10
2023-05-19T21:35:29.028Z,2.35
2023-05-19T21:37:56.122Z,2.13
2023-05-19T21:40:23.200Z,2.10
2023-05-19T21:42:50.440Z,2.00
2023-05-19T21:45:17.689Z,2.00
2023-05-19T21:47:44.825Z,2.15
2023-05-19T21:50:15.737Z,1.80
2023-05-19T21:52:42.799Z,1.77
2023-05-19T21:55:10.257Z,1.95
2023-05-19T21:57:37.278Z,1.92
2023-05-19T22:00:06.660Z,1.80
2023-05-19T22:02:33.817Z,2.00
2023-05-19T22:05:01.109Z,1.60
2023-05-19T22:07:28.776Z,1.90
2023-05-19T22:09:55.901Z,1.90
2023-05-19T22:12:24.005Z,1.80
2023-05-19T22:14:51.488Z,1.98
2023-05-19T22:17:18.540Z,2.30
2023-05-19T22:19:46.134Z,2.55
2023-05-19T22:22:14.484Z,3.22
2023-05-19T22:24:42.185Z,2.70
2023-05-19T22:27:10.077Z,2.70
2023-05-19T22:29:38.953Z,2.30
2023-05-19T22:32:07.968Z,2.10
2023-05-19T22:34:35.027Z,1.70
2023-05-19T22:37:02.303Z,1.73
2023-05-19T22:39:29.320Z,1.98
2023-05-19T22:41:56.399Z,2.03
2023-05-19T22:44:23.449Z,2.17
2023-05-19T22:46:50.484Z,2.38
2023-05-19T22:49:17.538Z,2.92
2023-05-19T22:51:44.597Z,3.90
2023-05-19T22:54:11.717Z,3.88
2023-05-19T22:56:38.786Z,3.47
2023-05-19T22:59:06.039Z,2.67
2023-05-19T23:01:33.153Z,2.20
2023-05-19T23:04:00.303Z,2.00
2023-05-19T23:06:27.361Z,1.75
2023-05-19T23:09:04.656Z,1.70
2023-05-19T23:11:31.686Z,1.48
2023-05-19T23:13:58.702Z,1.58
2023-05-19T23:16:26.167Z,1.95
2023-05-19T23:18:53.414Z,1.80
2023-05-19T23:21:20.613Z,1.50
2023-05-19T23:23:48.064Z,1.77
2023-05-19T23:26:15.226Z,1.65
2023-05-19T23:28:43.527Z,1.60
2023-05-19T23:31:10.722Z,1.45
2023-05-19T23:33:37.859Z,1.38
2023-05-19T23:36:09.612Z,1.33
2023-05-19T23:38:37.473Z,1.48
2023-05-19T23:41:05.527Z,1.60
2023-05-19T23:43:32.835Z,1.55
2023-05-19T23:46:00.426Z,1.30
2023-05-19T23:48:31.474Z,1.27
2023-05-19T23:50:58.849Z,1.45
2023-05-19T23:53:25.927Z,1.40
2023-05-19T23:55:53.032Z,1.33
2023-05-19T23:58:20.078Z,1.40
